createdAt,value
2022-08-01T00:02:14.632Z,1.80
2022-08-01T00:07:16.879Z,2.40
2022-08-01T00:12:19.000Z,2.17
2022-08-01T00:17:20.912Z,2.40
2022-08-01T00:22:22.897Z,3.30
2022-08-01T00:27:24.838Z,4.07
2022-08-01T00:32:26.850Z,3.67
2022-08-01T00:37:28.932Z,3.33
2022-08-01T00:42:31.018Z,3.05
2022-08-01T00:47:33.028Z,4.50
2022-08-01T00:52:35.633Z,4.57
2022-08-01T00:58:03.504Z,4.30
2022-08-01T01:03:00.124Z,4.32
2022-08-01T01:08:08.385Z,3.90
2022-08-01T01:13:14.531Z,4.00
2022-08-01T01:18:26.164Z,3.83
2022-08-01T01:23:55.940Z,4.20
2022-08-01T01:29:08.083Z,3.85
2022-08-01T01:34:13.539Z,4.10
2022-08-01T01:39:17.189Z,4.97
2022-08-01T01:44:19.537Z,4.60
2022-08-01T01:49:29.608Z,5.78
2022-08-01T01:54:36.278Z,6.35
2022-08-01T01:59:40.571Z,7.15
2022-08-01T02:04:44.809Z,7.82
2022-08-01T02:09:47.965Z,7.63
2022-08-01T02:14:52.226Z,7.43
2022-08-01T02:19:55.142Z,8.68
2022-08-01T02:25:18.677Z,9.23
2022-08-01T02:30:20.829Z,8.98
2022-08-01T02:35:30.018Z,8.73
2022-08-01T02:40:34.937Z,9.60
2022-08-01T02:45:43.317Z,10.25
2022-08-01T02:50:48.189Z,9.65
2022-08-01T02:55:51.182Z,11.30
2022-08-01T03:00:54.486Z,11.38
2022-08-01T03:05:58.631Z,11.82
2022-08-01T03:11:02.377Z,13.02
2022-08-01T03:16:05.778Z,14.85
2022-08-01T03:21:09.392Z,15.13
2022-08-01T03:26:12.358Z,14.50
2022-08-01T03:31:15.401Z,14.25
2022-08-01T03:36:22.048Z,14.50
2022-08-01T03:41:27.324Z,15.80
2022-08-01T03:46:45.877Z,15.55
2022-08-01T03:51:50.504Z,15.20
2022-08-01T03:56:53.062Z,16.13
2022-08-01T04:01:58.888Z,16.40
2022-08-01T04:07:05.211Z,17.60
2022-08-01T04:12:12.004Z,16.25
2022-08-01T04:17:14.427Z,15.98
2022-08-01T04:22:16.701Z,16.65
2022-08-01T04:27:50.100Z,17.38
2022-08-01T04:32:50.843Z,17.42
2022-08-01T04:37:54.401Z,17.50
2022-08-01T04:42:56.609Z,17.80
2022-08-01T04:47:59.094Z,18.15
2022-08-01T04:53:04.016Z,18.33
2022-08-01T04:58:06.187Z,15.98
2022-08-01T05:03:08.266Z,16.10
2022-08-01T05:08:11.021Z,13.32
2022-08-01T05:13:13.056Z,11.98
2022-08-01T05:18:14.918Z,11.07
2022-08-01T05:23:23.227Z,9.85
2022-08-01T05:28:39.000Z,9.05
2022-08-01T05:33:40.992Z,8.07
2022-08-01T05:38:42.875Z,7.93
2022-08-01T05:43:44.717Z,8.48
2022-08-01T05:48:46.562Z,8.82
2022-08-01T05:53:48.645Z,7.00
2022-08-01T05:58:51.603Z,7.45
2022-08-01T06:03:55.218Z,7.82
2022-08-01T06:08:57.092Z,7.07
2022-08-01T06:13:58.980Z,6.57
2022-08-01T06:19:00.847Z,6.78
2022-08-01T06:24:02.733Z,7.28
2022-08-01T06:29:04.993Z,7.18
2022-08-01T06:34:07.015Z,7.95
2022-08-01T06:39:09.028Z,7.47
2022-08-01T06:44:10.844Z,6.50
2022-08-01T06:49:13.036Z,7.00
2022-08-01T06:54:15.169Z,7.00
2022-08-01T06:59:17.234Z,6.80
2022-08-01T07:04:19.231Z,6.97
2022-08-01T07:09:21.221Z,5.97
2022-08-01T07:14:23.943Z,6.28
2022-08-01T07:19:27.709Z,6.40
2022-08-01T07:24:30.173Z,6.90
2022-08-01T07:29:32.143Z,6.25
2022-08-01T07:34:34.028Z,4.47
2022-08-01T07:39:35.968Z,4.95
2022-08-01T07:44:38.156Z,4.97
2022-08-01T07:49:41.126Z,4.65
2022-08-01T07:54:43.395Z,3.38
2022-08-01T07:59:45.291Z,3.30
2022-08-01T08:04:49.101Z,3.10
2022-08-01T08:09:51.565Z,4.15
2022-08-01T08:14:53.799Z,4.20
2022-08-01T08:19:55.794Z,4.13
2022-08-01T08:24:59.838Z,3.83
2022-08-01T08:30:07.365Z,3.53
2022-08-01T08:35:12.141Z,3.83
2022-08-01T08:40:16.471Z,3.20
2022-08-01T08:45:18.608Z,3.13
2022-08-01T08:50:21.468Z,2.70
2022-08-01T08:55:24.427Z,2.00
2022-08-01T09:00:26.415Z,3.13
2022-08-01T09:05:38.744Z,2.90
2022-08-01T09:10:41.410Z,3.15
2022-08-01T09:15:58.422Z,2.80
2022-08-01T09:21:17.259Z,2.90
2022-08-01T09:26:21.442Z,2.40
2022-08-01T09:31:23.510Z,2.30
2022-08-01T09:36:28.452Z,2.22
2022-08-01T09:41:40.149Z,2.35
2022-08-01T09:46:56.457Z,1.95
2022-08-01T09:52:00.968Z,1.90
2022-08-01T09:57:11.430Z,2.60
2022-08-01T10:02:16.402Z,3.15
2022-08-01T10:07:19.764Z,3.10
2022-08-01T10:12:29.873Z,2.83
2022-08-01T10:17:50.719Z,2.58
2022-08-01T10:22:56.645Z,2.35
2022-08-01T10:28:01.489Z,2.15
2022-08-01T10:33:04.085Z,2.15
2022-08-01T10:38:13.594Z,1.60
2022-08-01T10:43:21.699Z,1.50
2022-08-01T10:48:47.515Z,0.80
2022-08-01T10:53:54.317Z,1.10
2022-08-01T10:59:06.540Z,1.38
2022-08-01T11:04:17.927Z,0.75
2022-08-01T11:09:59.692Z,0.73
2022-08-01T11:15:02.454Z,0.75
2022-08-01T11:20:11.179Z,0.90
2022-08-01T11:25:15.010Z,0.90
2022-08-01T11:30:17.004Z,0.80
2022-08-01T11:35:25.863Z,0.70
2022-08-01T11:40:29.292Z,0.80
2022-08-01T11:45:55.812Z,0.70
2022-08-01T11:50:58.775Z,0.80
2022-08-01T11:56:04.594Z,1.00
2022-08-01T12:01:07.524Z,0.75
2022-08-01T12:06:10.956Z,1.10
2022-08-01T12:11:13.248Z,1.05
2022-08-01T12:16:16.109Z,0.85
2022-08-01T12:21:18.163Z,0.90
2022-08-01T12:26:28.471Z,1.00
2022-08-01T12:31:35.414Z,0.80
2022-08-01T12:36:38.085Z,0.80
2022-08-01T12:41:43.652Z,0.70
2022-08-01T12:46:45.732Z,1.00
2022-08-01T12:51:57.460Z,0.90
2022-08-01T12:56:59.787Z,0.70
2022-08-01T13:02:09.843Z,0.70
2022-08-01T13:07:12.339Z,1.05
2022-08-01T13:12:14.445Z,1.15
2022-08-01T13:17:31.575Z,0.90
2022-08-01T13:22:34.782Z,0.85
2022-08-01T13:27:36.774Z,0.75
2022-08-01T13:32:41.730Z,3.60
2022-08-01T13:37:44.151Z,2.63
2022-08-01T13:42:46.276Z,1.10
2022-08-01T13:48:03.869Z,0.93
2022-08-01T13:53:10.698Z,1.02
2022-08-01T13:58:12.752Z,0.70
2022-08-01T14:03:14.918Z,1.10
2022-08-01T14:08:16.856Z,0.88
2022-08-01T14:13:19.198Z,1.05
2022-08-01T14:18:25.986Z,1.10
2022-08-01T14:23:28.074Z,1.10
2022-08-01T14:28:31.211Z,0.98
2022-08-01T14:33:34.260Z,0.55
2022-08-01T14:38:36.653Z,0.90
2022-08-01T14:43:39.482Z,0.80
2022-08-01T14:48:41.763Z,0.90
2022-08-01T14:53:46.938Z,0.73
2022-08-01T14:58:52.862Z,0.75
2022-08-01T15:03:54.809Z,0.80
2022-08-01T15:08:56.706Z,0.70
2022-08-01T15:14:17.096Z,0.70
2022-08-01T15:19:19.308Z,0.75
2022-08-01T15:24:21.386Z,0.93
2022-08-01T15:29:23.236Z,0.82
2022-08-01T15:34:27.455Z,0.82
2022-08-01T15:39:30.243Z,0.82
2022-08-01T15:44:32.273Z,0.82
2022-08-01T15:49:36.887Z,0.70
2022-08-01T15:54:41.352Z,0.90
2022-08-01T15:59:45.182Z,0.82
2022-08-01T16:04:47.412Z,0.90
2022-08-01T16:09:49.372Z,0.75
2022-08-01T16:14:51.326Z,0.82
2022-08-01T16:19:53.376Z,0.90
2022-08-01T16:25:00.378Z,0.95
2022-08-01T16:30:02.616Z,0.90
2022-08-01T16:35:04.901Z,0.93
2022-08-01T16:40:07.199Z,1.00
2022-08-01T16:45:13.792Z,0.80
2022-08-01T16:50:16.231Z,0.82
2022-08-01T16:55:21.021Z,0.95
2022-08-01T17:00:26.068Z,1.15
2022-08-01T17:05:31.350Z,0.93
2022-08-01T17:10:33.270Z,1.08
2022-08-01T17:15:36.589Z,1.10
2022-08-01T17:20:41.144Z,0.98
2022-08-01T17:25:50.535Z,0.88
2022-08-01T17:30:52.518Z,1.10
2022-08-01T17:35:54.406Z,0.85
2022-08-01T17:40:57.378Z,1.13
2022-08-01T17:45:59.601Z,0.85
2022-08-01T17:51:01.512Z,0.88
2022-08-01T17:56:06.006Z,0.93
2022-08-01T18:01:09.095Z,1.10
2022-08-01T18:06:17.257Z,0.70
2022-08-01T18:11:19.669Z,0.80
2022-08-01T18:16:23.914Z,1.10
2022-08-01T18:21:25.845Z,0.95
2022-08-01T18:26:28.544Z,1.02
2022-08-01T18:31:30.592Z,1.00
2022-08-01T18:36:34.472Z,0.80
2022-08-01T18:41:37.388Z,0.80
2022-08-01T18:46:39.877Z,1.20
2022-08-01T18:51:44.591Z,1.05
2022-08-01T18:56:47.371Z,0.98
2022-08-01T19:01:49.419Z,1.10
2022-08-01T19:06:52.956Z,1.08
2022-08-01T19:11:54.938Z,1.10
2022-08-01T19:16:56.806Z,1.40
2022-08-01T19:21:58.871Z,1.08
2022-08-01T19:27:08.667Z,1.92
2022-08-01T19:32:11.289Z,1.38
2022-08-01T19:37:13.671Z,1.35
2022-08-01T19:42:15.634Z,1.95
2022-08-01T19:47:18.542Z,1.48
2022-08-01T19:52:26.012Z,1.40
2022-08-01T19:57:44.616Z,1.48
2022-08-01T20:02:50.547Z,1.70
2022-08-01T20:07:53.295Z,1.70
2022-08-01T20:12:56.827Z,1.23
2022-08-01T20:17:59.134Z,1.67
2022-08-01T20:23:03.037Z,1.67
2022-08-01T20:28:06.284Z,2.00
2022-08-01T20:33:10.515Z,2.20
2022-08-01T20:38:12.988Z,2.00
2022-08-01T20:43:20.552Z,2.08
2022-08-01T20:48:25.323Z,2.05
2022-08-01T20:53:27.412Z,1.77
2022-08-01T20:59:06.247Z,2.13
2022-08-01T21:04:08.420Z,1.80
2022-08-01T21:09:18.327Z,1.92
2022-08-01T21:14:21.448Z,2.10
2022-08-01T21:19:27.686Z,2.22
2022-08-01T21:24:46.587Z,1.88
2022-08-01T21:30:04.507Z,2.08
2022-08-01T21:35:07.202Z,2.20
2022-08-01T21:40:23.497Z,2.45
2022-08-01T21:45:27.191Z,2.47
2022-08-01T21:50:38.313Z,2.55
2022-08-01T21:55:53.483Z,2.35
2022-08-01T22:01:15.435Z,2.50
2022-08-01T22:06:20.764Z,2.60
2022-08-01T22:11:29.810Z,2.55
2022-08-01T22:16:33.667Z,2.55
2022-08-01T22:21:38.948Z,2.53
2022-08-01T22:26:42.869Z,2.65
2022-08-01T22:31:45.968Z,2.38
2022-08-01T22:36:52.021Z,2.30
2022-08-01T22:42:02.119Z,2.38
2022-08-01T22:47:09.076Z,2.80
2022-08-01T22:52:19.823Z,2.22
2022-08-01T22:57:33.968Z,2.83
2022-08-01T23:02:54.151Z,2.67
2022-08-01T23:07:58.208Z,2.28
2022-08-01T23:13:01.253Z,2.78
2022-08-01T23:18:04.813Z,2.30
2022-08-01T23:23:07.853Z,2.42
2022-08-01T23:28:10.721Z,2.63
2022-08-01T23:33:15.047Z,2.28
2022-08-01T23:38:18.333Z,2.15
2022-08-01T23:43:20.376Z,2.53
2022-08-01T23:48:22.386Z,2.90
2022-08-01T23:53:30.735Z,2.80
2022-08-01T23:58:33.376Z,2.53
